Terminal Aerodrome Forecast
Issued by NWS

Home | Current Version | Previous Version | Text Only | Print | Product List | Glossary On
Versions: 1 2 3 4 5 6 7 8 9 10 11 12 13 14 15 16 17 18 19 20 21 22 23 24 25
533
FTUS43 KDLH 250539
TAFHYR
TAF
KHYR 250539Z 2506/2606 16011G18KT P6SM VCSH OVC015 WS020/17037KT
      TEMPO 2507/2509 4SM -SHRA BR BKN007
     FM250900 17009G17KT 4SM -SHRA BR OVC006 WS020/18042KT
      TEMPO 2509/2512 2SM -TSRA BR BKN006 OVC022CB
     FM251600 20012G20KT P6SM SCT025 BKN035
     FM252300 23013G22KT P6SM VCSH SCT040
     FM260300 23007KT 5SM -SHRA SCT010 BKN026=

USA.gov is the U.S. government's official web portal to all federal, state and local government web resources and services.